Time;durP1;ratioP1;P1;durP2;ratioP2;P2;SDS_P1;SDS_P2;PMS_P1;PMS_P2;Temp;Humidity;BMP_temperature;BMP_pressure;BME280_temperature;BME280_humidity;BME280_pressure;Samples;Min_cycle;Max_cycle;Signal;HPM_P1;HPM_P2
2021/10/21 00:01:16;;;;;;;;;;;14.20;97.70;;;;;;5078432;28;19912;-73
2021/10/21 00:03:41;;;;;;;;;;;14.20;97.70;;;;;;5096810;28;19909;-73
2021/10/21 00:06:06;;;;;;;;;;;14.30;97.70;;;;;;5096504;28;19916;-73
2021/10/21 00:08:32;;;;;;;;;;;14.30;97.60;;;;;;5096853;28;19915;-72
2021/10/21 00:10:58;;;;;;;;;;;14.30;97.60;;;;;;5096689;28;19908;-74
2021/10/21 00:13:23;;;;;;;;;;;14.30;97.60;;;;;;5095774;28;19915;-72
2021/10/21 00:15:49;;;;;;;;;;;14.30;97.60;;;;;;5096487;28;19908;-73
2021/10/21 00:18:14;;;;;;;;;;;14.30;97.60;;;;;;5078286;28;19961;-71
2021/10/21 00:20:40;;;;;;;;;;;14.30;97.70;;;;;;5096278;28;19951;-73
2021/10/21 00:23:05;;;;;;;;;;;14.30;97.70;;;;;;5096473;28;20348;-72
2021/10/21 00:25:31;;;;;;;;;;;14.40;97.80;;;;;;5096305;28;20436;-73
2021/10/21 00:27:56;;;;;;;;;;;14.30;97.80;;;;;;5095736;28;19938;-72
2021/10/21 00:30:22;;;;;;;;;;;14.30;97.80;;;;;;5095398;28;19930;-73
2021/10/21 00:32:47;;;;;;;;;;;14.30;97.80;;;;;;5078167;28;19908;-72
2021/10/21 00:35:13;;;;;;;;;;;14.20;97.80;;;;;;5077951;28;20276;-72
2021/10/21 00:37:38;;;;;;;;;;;14.20;97.90;;;;;;5096400;28;19908;-72
2021/10/21 00:40:04;;;;;;;;;;;14.10;98.00;;;;;;5096122;28;20431;-73
2021/10/21 00:42:30;;;;;;;;;;;14.10;98.00;;;;;;5095462;28;19953;-72
2021/10/21 00:44:55;;;;;;;;;;;14.10;98.10;;;;;;5095866;28;19909;-72
2021/10/21 00:47:21;;;;;;;;;;;14.20;98.00;;;;;;5095772;28;19924;-72
2021/10/21 00:49:46;;;;;;;;;;;14.20;98.00;;;;;;5095941;28;19916;-72
2021/10/21 00:52:12;;;;;;;;;;;14.30;98.00;;;;;;5095823;28;19908;-72
2021/10/21 00:54:37;;;;;;;;;;;14.30;98.00;;;;;;5095860;28;19914;-72
2021/10/21 00:57:04;;;;;;;;;;;14.30;98.00;;;;;;5095157;28;19995;-72
2021/10/21 00:59:31;;;;;;;;;;;14.30;98.00;;;;;;5095744;28;19934;-73
2021/10/21 01:01:56;;;;;;;;;;;14.30;98.00;;;;;;5095718;28;19915;-73
2021/10/21 01:04:22;;;;;;;;;;;14.30;98.00;;;;;;5095656;28;19909;-73
2021/10/21 01:06:48;;;;;;;;;;;14.30;98.20;;;;;;5095314;28;20442;-72
2021/10/21 01:09:13;;;;;;;;;;;14.20;98.00;;;;;;5095537;28;20326;-73
2021/10/21 01:11:40;;;;;;;;;;;14.20;98.00;;;;;;5094940;28;19912;-73
2021/10/21 01:14:05;;;;;;;;;;;14.20;98.00;;;;;;5095534;28;19908;-73
2021/10/21 01:16:32;;;;;;;;;;;14.20;98.00;;;;;;5095342;28;19954;-72
2021/10/21 01:18:58;;;;;;;;;;;14.20;97.90;;;;;;5095346;28;20007;-73
2021/10/21 01:21:23;;;;;;;;;;;14.10;97.90;;;;;;5077264;28;20340;-73
2021/10/21 01:23:49;;;;;;;;;;;14.10;97.80;;;;;;5095323;28;20382;-72
2021/10/21 01:26:14;;;;;;;;;;;14.00;97.80;;;;;;5094667;28;19998;-73
2021/10/21 01:28:40;;;;;;;;;;;13.90;97.70;;;;;;5095145;28;19909;-72
2021/10/21 01:31:07;;;;;;;;;;;13.90;97.70;;;;;;5076927;28;19916;-72
2021/10/21 01:33:33;;;;;;;;;;;13.80;97.60;;;;;;5095187;28;19908;-73
2021/10/21 01:35:58;;;;;;;;;;;13.80;97.60;;;;;;5095062;28;20357;-74
2021/10/21 01:38:24;;;;;;;;;;;13.80;97.60;;;;;;5095038;28;19957;-73
2021/10/21 01:40:49;;;;;;;;;;;13.70;97.50;;;;;;5094297;28;20380;-73
2021/10/21 01:43:15;;;;;;;;;;;13.70;97.50;;;;;;5094905;28;19955;-72
2021/10/21 01:45:41;;;;;;;;;;;13.70;97.50;;;;;;5094694;28;19920;-73
2021/10/21 01:48:06;;;;;;;;;;;13.70;97.50;;;;;;5094811;28;19908;-74
2021/10/21 01:50:32;;;;;;;;;;;13.30;97.00;;;;;;5094740;28;19908;-73
2021/10/21 01:52:57;;;;;;;;;;;13.00;96.90;;;;;;5094649;28;19909;-73
2021/10/21 01:55:23;;;;;;;;;;;12.70;96.90;;;;;;5094191;28;19954;-74
2021/10/21 01:57:49;;;;;;;;;;;12.50;97.00;;;;;;5094704;28;20413;-74
2021/10/21 02:00:15;;;;;;;;;;;12.30;97.20;;;;;;5094605;28;19912;-74
2021/10/21 02:02:44;;;;;;;;;;;12.20;97.20;;;;;;5094707;28;19931;-73
2021/10/21 02:05:11;;;;;;;;;;;12.10;97.10;;;;;;5094514;28;19915;-74
2021/10/21 02:07:36;;;;;;;;;;;11.90;97.10;;;;;;5094491;28;20002;-75
2021/10/21 02:10:06;;;;;;;;;;;11.80;97.20;;;;;;5093965;28;19955;-74
2021/10/21 02:12:32;;;;;;;;;;;11.70;97.20;;;;;;5094472;28;19908;-72
2021/10/21 02:14:57;;;;;;;;;;;11.70;97.30;;;;;;5094471;28;19915;-74
2021/10/21 02:17:23;;;;;;;;;;;11.60;97.40;;;;;;5094196;28;19908;-72
2021/10/21 02:19:49;;;;;;;;;;;11.60;97.50;;;;;;5076154;28;20002;-74
2021/10/21 02:22:14;;;;;;;;;;;11.50;97.50;;;;;;5094151;28;20003;-75
2021/10/21 02:24:39;;;;;;;;;;;11.50;97.50;;;;;;5093669;28;19919;-74
2021/10/21 02:27:05;;;;;;;;;;;11.50;97.60;;;;;;5094073;28;19916;-74
2021/10/21 02:29:30;;;;;;;;;;;11.50;97.60;;;;;;5076095;28;19908;-75
2021/10/21 02:31:56;;;;;;;;;;;11.50;97.60;;;;;;5093968;28;20069;-74
2021/10/21 02:34:21;;;;;;;;;;;11.50;97.60;;;;;;5094212;28;19908;-73
2021/10/21 02:36:47;;;;;;;;;;;11.50;97.60;;;;;;5094010;28;19914;-74
2021/10/21 02:39:12;;;;;;;;;;;11.50;97.60;;;;;;5093358;28;19954;-75
2021/10/21 02:41:37;;;;;;;;;;;11.50;97.60;;;;;;5094032;28;19908;-73
2021/10/21 02:44:03;;;;;;;;;;;11.60;97.60;;;;;;5075861;28;19989;-74
2021/10/21 02:46:28;;;;;;;;;;;11.60;97.60;;;;;;5093800;28;19970;-74
2021/10/21 02:48:54;;;;;;;;;;;11.60;97.50;;;;;;5075675;28;19912;-73
2021/10/21 02:51:19;;;;;;;;;;;11.70;97.50;;;;;;5093777;28;19915;-74
2021/10/21 02:53:45;;;;;;;;;;;11.70;97.50;;;;;;5092883;28;19909;-73
2021/10/21 02:56:11;;;;;;;;;;;11.80;97.80;;;;;;5093951;28;19915;-74
2021/10/21 02:58:36;;;;;;;;;;;11.80;97.50;;;;;;5093792;28;19916;-73
2021/10/21 03:01:02;;;;;;;;;;;11.80;97.50;;;;;;5093718;28;19961;-77
2021/10/21 03:03:27;;;;;;;;;;;11.80;97.40;;;;;;5093814;28;19908;-73
2021/10/21 03:05:53;;;;;;;;;;;11.90;97.40;;;;;;5093489;28;19920;-74
2021/10/21 03:08:18;;;;;;;;;;;11.90;97.40;;;;;;5093149;28;19915;-73
2021/10/21 03:10:43;;;;;;;;;;;12.00;97.40;;;;;;5075578;28;20093;-73
2021/10/21 03:13:09;;;;;;;;;;;12.00;97.40;;;;;;5093462;28;19940;-73
2021/10/21 03:15:34;;;;;;;;;;;12.00;97.30;;;;;;5075594;28;20477;-73
2021/10/21 03:18:00;;;;;;;;;;;12.10;97.40;;;;;;5075471;28;19908;-74
2021/10/21 03:20:25;;;;;;;;;;;12.10;97.30;;;;;;5093674;28;19954;-74
2021/10/21 03:22:51;;;;;;;;;;;12.10;97.20;;;;;;5092992;28;19908;-73
2021/10/21 03:25:16;;;;;;;;;;;12.10;97.20;;;;;;5093322;28;19912;-73
2021/10/21 03:27:42;;;;;;;;;;;12.00;97.10;;;;;;5093593;28;19947;-73
2021/10/21 03:30:08;;;;;;;;;;;11.90;97.20;;;;;;5093466;28;20364;-73
2021/10/21 03:32:33;;;;;;;;;;;11.90;97.30;;;;;;5093472;28;20395;-73
2021/10/21 03:34:59;;;;;;;;;;;11.80;97.30;;;;;;5093377;28;19915;-73
2021/10/21 03:37:25;;;;;;;;;;;11.80;97.40;;;;;;5092852;28;19919;-72
2021/10/21 03:39:50;;;;;;;;;;;11.80;97.40;;;;;;5093329;28;20399;-74
2021/10/21 03:42:20;;;;;;;;;;;11.80;97.40;;;;;;5093380;28;19908;-73
2021/10/21 03:44:45;;;;;;;;;;;11.80;97.40;;;;;;5093357;28;19926;-73
2021/10/21 03:47:11;;;;;;;;;;;11.70;97.40;;;;;;5092903;28;20276;-74
2021/10/21 03:49:37;;;;;;;;;;;11.70;97.50;;;;;;5075364;28;19908;-73
2021/10/21 03:52:03;;;;;;;;;;;11.70;97.50;;;;;;5092804;28;19989;-72
2021/10/21 03:54:28;;;;;;;;;;;11.70;97.50;;;;;;5093247;28;19912;-75
2021/10/21 03:56:54;;;;;;;;;;;11.80;97.50;;;;;;5093273;28;20003;-74
2021/10/21 03:59:19;;;;;;;;;;;11.80;97.50;;;;;;5074772;28;20372;-75
2021/10/21 04:01:44;;;;;;;;;;;11.80;97.50;;;;;;5093206;28;19957;-74
2021/10/21 04:04:10;;;;;;;;;;;11.80;97.50;;;;;;5093273;28;19951;-74
2021/10/21 04:06:35;;;;;;;;;;;11.80;97.50;;;;;;5096227;28;19923;-75
2021/10/21 04:09:01;;;;;;;;;;;11.80;97.40;;;;;;5096731;28;19908;-74
2021/10/21 04:11:26;;;;;;;;;;;11.80;97.40;;;;;;5096778;28;20376;-74
2021/10/21 04:13:52;;;;;;;;;;;11.80;97.40;;;;;;5096687;28;19951;-73
2021/10/21 04:16:17;;;;;;;;;;;11.80;97.40;;;;;;5096614;28;19931;-73
2021/10/21 04:18:43;;;;;;;;;;;11.80;97.40;;;;;;5078443;28;20391;-72
2021/10/21 04:21:10;;;;;;;;;;;11.80;97.40;;;;;;5096079;28;19912;-74
2021/10/21 04:23:36;;;;;;;;;;;11.80;97.40;;;;;;5096559;28;19915;-73
2021/10/21 04:26:01;;;;;;;;;;;11.70;97.30;;;;;;5096303;28;19916;-74
2021/10/21 04:28:27;;;;;;;;;;;11.70;97.40;;;;;;5096359;28;19947;-73
2021/10/21 04:30:52;;;;;;;;;;;11.70;97.40;;;;;;5096408;28;19937;-74
2021/10/21 04:33:18;;;;;;;;;;;11.70;97.40;;;;;;5095969;28;19908;-74
2021/10/21 04:35:43;;;;;;;;;;;11.70;97.40;;;;;;5096249;28;19908;-74
2021/10/21 04:38:09;;;;;;;;;;;11.60;97.40;;;;;;5096668;28;20364;-74
2021/10/21 04:40:34;;;;;;;;;;;11.60;97.70;;;;;;5078148;28;20284;-74
2021/10/21 04:43:00;;;;;;;;;;;11.70;97.40;;;;;;5096035;28;20416;-73
2021/10/21 04:45:25;;;;;;;;;;;11.70;97.40;;;;;;5095993;28;19920;-75
2021/10/21 04:47:56;;;;;;;;;;;11.60;97.30;;;;;;5095535;28;19955;-74
2021/10/21 04:50:21;;;;;;;;;;;11.60;97.40;;;;;;5096095;28;19933;-74
2021/10/21 04:52:47;;;;;;;;;;;11.60;97.40;;;;;;5095941;28;19996;-74
2021/10/21 04:55:12;;;;;;;;;;;11.60;97.40;;;;;;5095964;28;19931;-73
2021/10/21 04:57:38;;;;;;;;;;;11.60;97.50;;;;;;5095958;28;20022;-74
2021/10/21 05:00:04;;;;;;;;;;;11.60;97.40;;;;;;5095867;28;19952;-75
2021/10/21 05:02:29;;;;;;;;;;;11.60;97.40;;;;;;5095329;28;19963;-75
2021/10/21 05:04:55;;;;;;;;;;;11.60;97.40;;;;;;5095620;28;19912;-73
2021/10/21 05:07:20;;;;;;;;;;;11.60;97.40;;;;;;5095599;28;20276;-74
2021/10/21 05:09:46;;;;;;;;;;;11.70;97.30;;;;;;5095687;28;19915;-73
2021/10/21 05:12:11;;;;;;;;;;;11.70;97.30;;;;;;5077328;28;19908;-72
2021/10/21 05:14:37;;;;;;;;;;;11.70;97.30;;;;;;5095543;28;19931;-74
2021/10/21 05:17:02;;;;;;;;;;;11.70;97.30;;;;;;5094737;28;19934;-74
2021/10/21 05:19:28;;;;;;;;;;;11.70;97.20;;;;;;5095407;28;19912;-75
2021/10/21 05:21:53;;;;;;;;;;;11.70;97.30;;;;;;5095438;28;19954;-74
2021/10/21 05:24:19;;;;;;;;;;;11.70;97.20;;;;;;5095326;28;19908;-74
2021/10/21 05:26:44;;;;;;;;;;;11.70;97.20;;;;;;5095241;28;19973;-74
2021/10/21 05:29:10;;;;;;;;;;;11.70;97.30;;;;;;5095258;28;19970;-74
2021/10/21 05:31:35;;;;;;;;;;;11.70;97.30;;;;;;5094784;28;20372;-75
2021/10/21 05:34:02;;;;;;;;;;;11.70;97.30;;;;;;5095096;28;19913;-75
2021/10/21 05:36:27;;;;;;;;;;;11.60;97.20;;;;;;5095061;28;20253;-74
2021/10/21 05:38:53;;;;;;;;;;;11.60;97.30;;;;;;5095150;28;20293;-73
2021/10/21 05:41:18;;;;;;;;;;;11.70;97.40;;;;;;5095191;28;20371;-76
2021/10/21 05:43:44;;;;;;;;;;;11.60;97.60;;;;;;5095059;28;19914;-73
2021/10/21 05:46:09;;;;;;;;;;;11.60;97.40;;;;;;5094041;28;19920;-73
2021/10/21 05:48:35;;;;;;;;;;;11.60;97.40;;;;;;5094818;28;20323;-73
2021/10/21 05:51:01;;;;;;;;;;;11.50;97.40;;;;;;5094787;28;19909;-74
2021/10/21 05:53:30;;;;;;;;;;;11.30;97.30;;;;;;5094646;28;19914;-73
2021/10/21 05:55:55;;;;;;;;;;;11.00;97.30;;;;;;5094661;28;19998;-73
2021/10/21 05:58:20;;;;;;;;;;;10.80;97.60;;;;;;5094694;28;19947;-71
2021/10/21 06:00:46;;;;;;;;;;;10.70;97.80;;;;;;5094122;28;19915;-73
2021/10/21 06:03:11;;;;;;;;;;;10.50;97.70;;;;;;5094496;28;19930;-74
2021/10/21 06:05:37;;;;;;;;;;;10.40;97.80;;;;;;5076229;28;20356;-75
2021/10/21 06:08:03;;;;;;;;;;;10.30;98.00;;;;;;5094560;28;19915;-74
2021/10/21 06:10:29;;;;;;;;;;;10.30;98.10;;;;;;5094569;28;19935;-77
2021/10/21 06:12:55;;;;;;;;;;;10.30;98.10;;;;;;5094288;28;19918;-72
2021/10/21 06:15:21;;;;;;;;;;;10.30;98.00;;;;;;5093944;28;19923;-73
2021/10/21 06:17:46;;;;;;;;;;;10.30;98.00;;;;;;5076127;28;20310;-74
2021/10/21 06:20:14;;;;;;;;;;;10.30;98.10;;;;;;5094327;28;19915;-73
2021/10/21 06:22:39;;;;;;;;;;;10.20;98.10;;;;;;5076107;28;19912;-73
2021/10/21 06:25:07;;;;;;;;;;;10.30;98.00;;;;;;5093932;28;19919;-73
2021/10/21 06:27:33;;;;;;;;;;;10.30;98.10;;;;;;5075267;28;19966;-73
2021/10/21 06:29:58;;;;;;;;;;;10.30;98.00;;;;;;5093544;28;19912;-74
2021/10/21 06:32:24;;;;;;;;;;;10.30;98.00;;;;;;5093973;28;20027;-74
2021/10/21 06:34:49;;;;;;;;;;;10.30;97.90;;;;;;5093861;28;19912;-73
2021/10/21 06:37:15;;;;;;;;;;;10.30;97.90;;;;;;5093950;28;19912;-73
2021/10/21 06:39:41;;;;;;;;;;;10.30;97.90;;;;;;5093887;28;19908;-74
2021/10/21 06:42:06;;;;;;;;;;;10.40;97.90;;;;;;5093952;28;19908;-75
2021/10/21 06:44:31;;;;;;;;;;;10.40;97.90;;;;;;5093094;28;19912;-73
2021/10/21 06:47:01;;;;;;;;;;;10.40;97.90;;;;;;5093352;28;19978;-72
2021/10/21 06:49:30;;;;;;;;;;;10.50;97.90;;;;;;5093345;28;22375;-74
2021/10/21 06:51:55;;;;;;;;;;;10.50;97.80;;;;;;5093715;28;19934;-73
2021/10/21 06:54:21;;;;;;;;;;;10.50;97.80;;;;;;5093803;28;20344;-73
2021/10/21 06:56:46;;;;;;;;;;;10.50;97.80;;;;;;5093620;28;19908;-72
2021/10/21 06:59:12;;;;;;;;;;;10.50;97.70;;;;;;5093357;28;19951;-73
2021/10/21 07:01:38;;;;;;;;;;;10.60;97.80;;;;;;5093233;28;19952;-73
2021/10/21 07:04:04;;;;;;;;;;;10.60;97.80;;;;;;5093598;28;20387;-72
2021/10/21 07:06:29;;;;;;;;;;;10.70;97.70;;;;;;5093670;28;19916;-74
2021/10/21 07:08:55;;;;;;;;;;;10.70;97.60;;;;;;5093612;28;19965;-72
2021/10/21 07:11:20;;;;;;;;;;;10.70;97.60;;;;;;5093620;28;19908;-73
2021/10/21 07:13:45;;;;;;;;;;;10.70;97.60;;;;;;5093100;28;20353;-72
2021/10/21 07:16:11;;;;;;;;;;;10.70;97.60;;;;;;5093531;28;19908;-72
2021/10/21 07:18:36;;;;;;;;;;;10.70;97.50;;;;;;5093339;28;19916;-73
2021/10/21 07:21:02;;;;;;;;;;;10.70;97.80;;;;;;5093434;28;19991;-72
2021/10/21 07:23:27;;;;;;;;;;;10.70;97.50;;;;;;5093459;28;19985;-72
2021/10/21 07:25:53;;;;;;;;;;;10.80;97.50;;;;;;5093387;28;19920;-73
2021/10/21 07:28:21;;;;;;;;;;;10.80;97.50;;;;;;5092949;28;19915;-73
2021/10/21 07:30:49;;;;;;;;;;;10.80;97.50;;;;;;5093213;28;19908;-73
2021/10/21 07:33:15;;;;;;;;;;;10.80;97.50;;;;;;5093468;28;19995;-72
2021/10/21 07:35:40;;;;;;;;;;;10.90;97.50;;;;;;5075195;28;19944;-72
2021/10/21 07:38:07;;;;;;;;;;;10.90;97.50;;;;;;5093198;28;19915;-73
2021/10/21 07:40:32;;;;;;;;;;;11.00;97.40;;;;;;5097311;28;19908;-74
2021/10/21 07:42:57;;;;;;;;;;;11.00;97.40;;;;;;5096897;28;19908;-74
2021/10/21 07:45:23;;;;;;;;;;;11.00;97.30;;;;;;5096894;28;19954;-73
2021/10/21 07:47:48;;;;;;;;;;;11.00;97.30;;;;;;5097378;28;20373;-73
2021/10/21 07:50:17;;;;;;;;;;;11.00;97.30;;;;;;5096926;28;19944;-72
2021/10/21 07:52:45;;;;;;;;;;;11.00;97.40;;;;;;5097064;28;19946;-72
2021/10/21 07:55:10;;;;;;;;;;;11.00;97.40;;;;;;5097089;28;20439;-71
2021/10/21 07:57:36;;;;;;;;;;;11.00;97.30;;;;;;5096647;28;19947;-71
2021/10/21 08:00:03;;;;;;;;;;;11.00;97.30;;;;;;5096975;28;20041;-73
2021/10/21 08:02:28;;;;;;;;;;;11.00;97.40;;;;;;5096971;28;19999;-73
2021/10/21 08:04:53;;;;;;;;;;;11.00;97.40;;;;;;5096749;28;20316;-73
2021/10/21 08:07:19;;;;;;;;;;;11.00;97.30;;;;;;5096869;28;20430;-73
2021/10/21 08:09:44;;;;;;;;;;;11.00;97.30;;;;;;5096695;28;19912;-73
2021/10/21 08:12:10;;;;;;;;;;;11.10;97.30;;;;;;5096056;28;19908;-74
2021/10/21 08:14:36;;;;;;;;;;;11.10;97.30;;;;;;5096756;28;19908;-73
2021/10/21 08:17:01;;;;;;;;;;;11.10;97.20;;;;;;5096651;28;19967;-73
2021/10/21 08:19:29;;;;;;;;;;;11.20;97.30;;;;;;5096519;28;19907;-72
2021/10/21 08:21:54;;;;;;;;;;;11.20;97.30;;;;;;5096575;28;20289;-73
2021/10/21 08:24:22;;;;;;;;;;;11.20;97.20;;;;;;5096412;28;19962;-73
2021/10/21 08:26:48;;;;;;;;;;;11.20;97.10;;;;;;5095780;28;19998;-72
2021/10/21 08:29:14;;;;;;;;;;;11.10;97.10;;;;;;5096247;28;19908;-73
2021/10/21 08:31:40;;;;;;;;;;;11.10;97.10;;;;;;5096340;28;19909;-72
2021/10/21 08:34:05;;;;;;;;;;;11.20;97.10;;;;;;5096797;28;20041;-72
2021/10/21 08:36:31;;;;;;;;;;;11.20;97.10;;;;;;5096193;28;19966;-74
2021/10/21 08:38:56;;;;;;;;;;;11.20;97.10;;;;;;5096150;28;19916;-72
2021/10/21 08:41:23;;;;;;;;;;;11.20;97.10;;;;;;5095538;28;19915;-72
2021/10/21 08:43:49;;;;;;;;;;;11.30;97.00;;;;;;5096108;28;19908;-74
2021/10/21 08:46:17;;;;;;;;;;;11.30;97.00;;;;;;5095807;28;19930;-72
2021/10/21 08:48:44;;;;;;;;;;;11.30;97.00;;;;;;5096045;28;20327;-71
2021/10/21 08:51:10;;;;;;;;;;;11.40;97.00;;;;;;5095341;28;20007;-73
2021/10/21 08:53:36;;;;;;;;;;;11.50;96.90;;;;;;5095770;28;20352;-73
2021/10/21 08:56:02;;;;;;;;;;;11.50;96.90;;;;;;5077034;28;19914;-73
2021/10/21 08:58:28;;;;;;;;;;;11.60;97.00;;;;;;5095771;28;20007;-73
2021/10/21 09:01:02;;;;;;;;;;;11.70;97.00;;;;;;5095936;28;20315;-75
2021/10/21 09:03:54;;;;;;;;;;;11.70;96.70;;;;;;5095722;28;20071;-74
2021/10/21 09:06:50;;;;;;;;;;;11.50;96.40;;;;;;5077521;28;19939;-73
2021/10/21 09:09:23;;;;;;;;;;;11.20;96.50;;;;;;5077022;28;19912;-74
2021/10/21 09:12:08;;;;;;;;;;;10.90;96.60;;;;;;5095558;28;20283;-74
2021/10/21 09:14:34;;;;;;;;;;;10.70;96.70;;;;;;5095466;28;20000;-73
2021/10/21 09:17:04;;;;;;;;;;;10.50;97.10;;;;;;5095442;28;19908;-75
2021/10/21 09:19:30;;;;;;;;;;;10.50;97.10;;;;;;5077147;28;20356;-74
2021/10/21 09:21:55;;;;;;;;;;;10.40;97.20;;;;;;5095376;28;19919;-74
2021/10/21 09:24:22;;;;;;;;;;;10.40;97.20;;;;;;5094847;28;19954;-74
2021/10/21 09:26:59;;;;;;;;;;;10.30;97.10;;;;;;5095257;28;19916;-74
2021/10/21 09:29:25;;;;;;;;;;;10.20;97.10;;;;;;5095061;28;19912;-73
2021/10/21 09:32:01;;;;;;;;;;;10.20;97.20;;;;;;5076985;28;19908;-73
2021/10/21 09:34:29;;;;;;;;;;;10.20;97.30;;;;;;5095131;28;20387;-73
2021/10/21 09:37:02;;;;;;;;;;;10.20;97.40;;;;;;5095242;28;19912;-75
2021/10/21 09:39:39;;;;;;;;;;;10.20;97.40;;;;;;5094378;28;19955;-76
2021/10/21 09:42:08;;;;;;;;;;;10.20;97.30;;;;;;5095017;28;19934;-74
2021/10/21 09:44:34;;;;;;;;;;;10.10;97.30;;;;;;5094909;28;19908;-73
2021/10/21 09:47:12;;;;;;;;;;;10.20;97.40;;;;;;5076468;28;19927;-72
2021/10/21 09:49:39;;;;;;;;;;;10.20;97.40;;;;;;5095028;28;19943;-73
2021/10/21 09:52:13;;;;;;;;;;;10.20;97.40;;;;;;5094844;28;20010;-76
2021/10/21 09:54:39;;;;;;;;;;;10.30;97.40;;;;;;5094256;28;20010;-74
2021/10/21 09:57:05;;;;;;;;;;;10.20;97.40;;;;;;5076523;28;19908;-73
2021/10/21 09:59:34;;;;;;;;;;;10.30;97.40;;;;;;5076465;28;20313;-75
2021/10/21 10:02:18;;;;;;;;;;;10.20;97.50;;;;;;5093642;28;19908;-75
2021/10/21 10:04:51;;;;;;;;;;;10.30;97.50;;;;;;5076424;28;19908;-74
2021/10/21 10:07:26;;;;;;;;;;;10.20;97.40;;;;;;5075806;28;19916;-75
2021/10/21 10:09:52;;;;;;;;;;;10.30;97.50;;;;;;5094627;28;19915;-74
2021/10/21 10:12:18;;;;;;;;;;;10.30;97.50;;;;;;5094471;28;19908;-73
2021/10/21 10:14:47;;;;;;;;;;;10.40;97.50;;;;;;5094335;28;19953;-73
2021/10/21 10:17:13;;;;;;;;;;;10.40;97.50;;;;;;5094432;28;20011;-75
2021/10/21 10:19:42;;;;;;;;;;;10.50;97.50;;;;;;5094288;28;19909;-75
2021/10/21 10:22:11;;;;;;;;;;;10.60;97.50;;;;;;5093871;28;19908;-76
2021/10/21 10:24:38;;;;;;;;;;;10.80;97.50;;;;;;5094169;28;19912;-75
2021/10/21 10:27:18;;;;;;;;;;;10.90;97.60;;;;;;5094053;28;19920;-75
2021/10/21 10:29:45;;;;;;;;;;;11.10;97.50;;;;;;5094250;28;19975;-74
2021/10/21 10:32:31;;;;;;;;;;;11.20;97.40;;;;;;5094223;28;19912;-74
2021/10/21 10:35:05;;;;;;;;;;;11.20;97.30;;;;;;5076375;28;19908;-75
2021/10/21 10:37:31;;;;;;;;;;;11.20;97.50;;;;;;5093460;28;19915;-76
2021/10/21 10:39:57;;;;;;;;;;;11.30;97.60;;;;;;5075885;28;19908;-75
2021/10/21 10:42:28;;;;;;;;;;;11.50;97.60;;;;;;5093969;28;19914;-74
2021/10/21 10:44:54;;;;;;;;;;;11.60;97.40;;;;;;5093797;28;19908;-73
2021/10/21 10:47:38;;;;;;;;;;;11.60;97.30;;;;;;5093676;28;20421;-74
2021/10/21 10:50:07;;;;;;;;;;;11.60;97.30;;;;;;5093812;28;19962;-75
2021/10/21 10:52:46;;;;;;;;;;;11.60;97.30;;;;;;5093288;28;19908;-75
2021/10/21 10:55:15;;;;;;;;;;;11.60;97.30;;;;;;5093783;28;19908;-76
2021/10/21 10:57:44;;;;;;;;;;;11.50;97.30;;;;;;5093650;28;19914;-76
2021/10/21 11:00:28;;;;;;;;;;;11.50;97.20;;;;;;5093786;28;19953;-76
2021/10/21 11:02:57;;;;;;;;;;;11.50;97.20;;;;;;5093612;28;19978;-75
2021/10/21 11:05:23;;;;;;;;;;;11.40;97.30;;;;;;5093131;28;19909;-75
2021/10/21 11:07:49;;;;;;;;;;;11.40;97.30;;;;;;5093707;28;20319;-76
2021/10/21 11:10:18;;;;;;;;;;;11.50;97.30;;;;;;5093547;28;20241;-74
2021/10/21 11:12:44;;;;;;;;;;;11.50;97.40;;;;;;5093604;28;19909;-75
2021/10/21 11:15:28;;;;;;;;;;;11.70;97.40;;;;;;5097223;28;19908;-76
2021/10/21 11:17:53;;;;;;;;;;;11.80;97.20;;;;;;5098129;28;19916;-74
2021/10/21 11:20:31;;;;;;;;;;;11.80;97.10;;;;;;5097117;28;20063;-73
2021/10/21 11:23:00;;;;;;;;;;;11.70;97.00;;;;;;5097805;28;19908;-73
2021/10/21 11:25:26;;;;;;;;;;;11.60;97.10;;;;;;5097531;28;20353;-73
2021/10/21 11:27:53;;;;;;;;;;;11.50;97.00;;;;;;5097457;28;19968;-73
2021/10/21 11:30:23;;;;;;;;;;;11.50;97.10;;;;;;5097660;28;19916;-73
2021/10/21 11:32:50;;;;;;;;;;;11.50;97.20;;;;;;5079226;28;19908;-74
2021/10/21 11:35:20;;;;;;;;;;;11.60;97.10;;;;;;5097029;28;20360;-73
2021/10/21 11:37:47;;;;;;;;;;;11.60;97.00;;;;;;5097410;28;19912;-74
2021/10/21 11:40:22;;;;;;;;;;;11.60;96.80;;;;;;5097250;28;19908;-73
2021/10/21 11:42:51;;;;;;;;;;;11.70;96.90;;;;;;5097299;28;20356;-74
2021/10/21 11:45:17;;;;;;;;;;;11.70;96.80;;;;;;5097142;28;20306;-72
2021/10/21 11:47:43;;;;;;;;;;;11.80;96.80;;;;;;5097108;28;19920;-75
2021/10/21 11:50:09;;;;;;;;;;;11.90;96.70;;;;;;5096632;28;19908;-74
2021/10/21 11:52:38;;;;;;;;;;;12.10;96.60;;;;;;5097254;28;20006;-73
2021/10/21 11:55:05;;;;;;;;;;;12.00;96.20;;;;;;5097251;28;19954;-73
2021/10/21 11:57:31;;;;;;;;;;;11.30;95.20;;;;;;5097036;28;19912;-74
2021/10/21 11:59:57;;;;;;;;;;;10.60;95.40;;;;;;5096862;28;19947;-74
2021/10/21 12:02:27;;;;;;;;;;;10.00;95.90;;;;;;5078796;28;19962;-73
2021/10/21 12:04:52;;;;;;;;;;;9.60;96.40;;;;;;5096455;28;19908;-74
2021/10/21 12:07:18;;;;;;;;;;;9.40;96.70;;;;;;5096816;28;20370;-75
2021/10/21 12:09:45;;;;;;;;;;;9.30;97.00;;;;;;5096772;28;20347;-75
2021/10/21 12:12:17;;;;;;;;;;;9.20;96.90;;;;;;5096691;28;19916;-75
2021/10/21 12:14:44;;;;;;;;;;;9.10;97.10;;;;;;5096824;28;20324;-75
2021/10/21 12:17:10;;;;;;;;;;;9.10;97.20;;;;;;5096796;28;20357;-74
2021/10/21 12:19:38;;;;;;;;;;;9.10;97.30;;;;;;5096055;28;19916;-73
2021/10/21 12:22:05;;;;;;;;;;;9.10;97.30;;;;;;5096505;28;19916;-73
2021/10/21 12:24:31;;;;;;;;;;;9.20;97.20;;;;;;5096370;28;19978;-75
2021/10/21 12:26:58;;;;;;;;;;;9.20;97.20;;;;;;5095570;28;19916;-75
2021/10/21 12:29:28;;;;;;;;;;;9.20;97.10;;;;;;5096385;28;20288;-75
2021/10/21 12:31:53;;;;;;;;;;;9.20;97.10;;;;;;5095986;28;19908;-76
2021/10/21 12:34:23;;;;;;;;;;;9.20;97.10;;;;;;5096273;28;19914;-75
2021/10/21 12:36:50;;;;;;;;;;;9.20;97.00;;;;;;5096322;28;19947;-74
2021/10/21 12:39:26;;;;;;;;;;;9.30;97.10;;;;;;5096262;28;19954;-75
2021/10/21 12:41:58;;;;;;;;;;;9.30;97.00;;;;;;5096342;28;19995;-74
2021/10/21 12:44:25;;;;;;;;;;;9.40;97.10;;;;;;5078030;28;19911;-75
2021/10/21 12:47:07;;;;;;;;;;;9.50;97.10;;;;;;5095238;28;20281;-75
2021/10/21 12:49:33;;;;;;;;;;;9.60;97.00;;;;;;5095997;28;19999;-74
2021/10/21 12:52:09;;;;;;;;;;;9.70;97.10;;;;;;5096071;28;19947;-74
2021/10/21 12:54:36;;;;;;;;;;;9.70;97.00;;;;;;5096163;28;19974;-74
2021/10/21 12:57:01;;;;;;;;;;;9.80;97.00;;;;;;5095896;28;19908;-75
2021/10/21 12:59:31;;;;;;;;;;;10.10;97.40;;;;;;5095694;28;19915;-75
2021/10/21 13:02:01;;;;;;;;;;;10.50;97.20;;;;;;5095354;28;19908;-74
2021/10/21 13:04:40;;;;;;;;;;;10.70;96.70;;;;;;5077621;28;20349;-74
2021/10/21 13:07:06;;;;;;;;;;;10.60;96.40;;;;;;5095766;28;19920;-75
2021/10/21 13:09:32;;;;;;;;;;;10.40;96.50;;;;;;5095640;28;19914;-75
2021/10/21 13:11:58;;;;;;;;;;;10.30;96.70;;;;;;5095564;28;19980;-76
2021/10/21 13:14:23;;;;;;;;;;;10.20;96.80;;;;;;5095464;28;19908;-75
2021/10/21 13:16:49;;;;;;;;;;;10.30;96.90;;;;;;5095060;28;19962;-75
2021/10/21 13:19:14;;;;;;;;;;;10.30;96.90;;;;;;5095411;28;20007;-75
2021/10/21 13:21:40;;;;;;;;;;;10.20;96.80;;;;;;5095339;28;19908;-76
2021/10/21 13:24:05;;;;;;;;;;;10.20;96.90;;;;;;5077210;28;19912;-76
2021/10/21 13:26:31;;;;;;;;;;;10.20;97.00;;;;;;5095276;28;20330;-74
2021/10/21 13:28:56;;;;;;;;;;;10.20;96.90;;;;;;5095174;28;19940;-75
2021/10/21 13:31:22;;;;;;;;;;;10.30;97.00;;;;;;5094797;28;19908;-77
2021/10/21 13:33:47;;;;;;;;;;;10.40;97.00;;;;;;5095186;28;19908;-75
2021/10/21 13:36:13;;;;;;;;;;;10.40;96.90;;;;;;5094724;28;19908;-75
2021/10/21 13:38:38;;;;;;;;;;;10.30;96.80;;;;;;5094950;28;19908;-76
2021/10/21 13:41:04;;;;;;;;;;;10.40;96.90;;;;;;5095143;28;19991;-75
2021/10/21 13:43:29;;;;;;;;;;;10.40;96.80;;;;;;5095064;28;19930;-74
2021/10/21 13:45:55;;;;;;;;;;;10.30;96.70;;;;;;5094209;28;19967;-75
2021/10/21 13:48:21;;;;;;;;;;;10.30;96.90;;;;;;5094693;28;19908;-75
2021/10/21 13:50:48;;;;;;;;;;;10.40;96.80;;;;;;5094900;28;20412;-76
2021/10/21 13:53:14;;;;;;;;;;;10.40;96.80;;;;;;5094867;28;20353;-75
2021/10/21 13:55:40;;;;;;;;;;;10.30;96.70;;;;;;5094904;28;19912;-77
2021/10/21 13:58:06;;;;;;;;;;;10.20;96.70;;;;;;5094622;28;19916;-76
2021/10/21 14:00:32;;;;;;;;;;;10.20;96.80;;;;;;5094277;28;19914;-77
2021/10/21 14:02:57;;;;;;;;;;;10.10;96.70;;;;;;5094758;28;19915;-76
2021/10/21 14:05:23;;;;;;;;;;;10.10;96.80;;;;;;5094632;28;19908;-76
2021/10/21 14:07:48;;;;;;;;;;;10.00;96.70;;;;;;5076318;28;20391;-76
2021/10/21 14:10:14;;;;;;;;;;;10.00;96.80;;;;;;5094558;28;19915;-76
2021/10/21 14:12:39;;;;;;;;;;;10.00;96.80;;;;;;5094496;28;20014;-75
2021/10/21 14:15:05;;;;;;;;;;;10.00;96.80;;;;;;5093949;28;19917;-75
2021/10/21 14:17:30;;;;;;;;;;;10.10;96.90;;;;;;5076214;28;19961;-76